Time;durP1;ratioP1;P1;durP2;ratioP2;P2;SDS_P1;SDS_P2;PMS_P1;PMS_P2;Temp;Humidity;BMP_temperature;BMP_pressure;BME280_temperature;BME280_humidity;BME280_pressure;Samples;Min_cycle;Max_cycle;Signal;HPM_P1;HPM_P2
2022/09/02 00:00:07;;;;;;;3.93;2.30;;;;;;;9.72;100.00;97289.72;4985161;28;20290;-58
2022/09/02 00:02:35;;;;;;;2.70;2.60;;;;;;;9.81;100.00;97283.38;4983782;28;20322;-54
2022/09/02 00:05:05;;;;;;;2.80;2.70;;;;;;;9.66;100.00;97281.50;4959701;28;20215;-60
2022/09/02 00:07:34;;;;;;;3.07;2.60;;;;;;;9.72;100.00;97287.94;4965198;28;20683;-51
2022/09/02 00:10:02;;;;;;;2.93;2.73;;;;;;;9.78;100.00;97287.22;4991287;28;20229;-54
2022/09/02 00:12:30;;;;;;;3.30;2.97;;;;;;;9.66;100.00;97276.22;4928225;28;21048;-52
2022/09/02 00:15:00;;;;;;;2.87;2.67;;;;;;;9.67;100.00;97274.41;4987119;28;20201;-55
2022/09/02 00:17:29;;;;;;;2.70;2.50;;;;;;;9.72;100.00;97273.88;4985367;28;20798;-53
2022/09/02 00:19:57;;;;;;;2.93;2.73;;;;;;;9.63;100.00;97278.38;4987703;28;20224;-50
2022/09/02 00:22:26;;;;;;;3.03;2.83;;;;;;;9.61;100.00;97272.44;4931893;28;20223;-53
2022/09/02 00:24:54;;;;;;;3.77;2.77;;;;;;;9.59;100.00;97280.56;4991135;28;20209;-57
2022/09/02 00:27:23;;;;;;;2.70;2.60;;;;;;;9.52;100.00;97272.50;4984193;28;20417;-56
2022/09/02 00:29:52;;;;;;;2.90;2.70;;;;;;;9.59;100.00;97269.16;4933097;28;20259;-56
2022/09/02 00:32:22;;;;;;;5.27;3.10;;;;;;;9.70;100.00;97274.06;4978551;28;20477;-55
2022/09/02 00:34:50;;;;;;;3.30;3.20;;;;;;;9.71;100.00;97262.47;4990133;28;20741;-55
2022/09/02 00:37:18;;;;;;;3.67;3.47;;;;;;;9.65;100.00;97268.44;4959972;28;20213;-55
2022/09/02 00:39:47;;;;;;;2.80;2.63;;;;;;;9.60;100.00;97268.16;4993253;28;20825;-55
2022/09/02 00:42:15;;;;;;;3.20;3.00;;;;;;;9.54;100.00;97265.22;4986786;28;20226;-55
2022/09/02 00:44:44;;;;;;;3.67;3.47;;;;;;;9.53;100.00;97262.75;4934098;28;20518;-54
2022/09/02 00:47:14;;;;;;;4.87;4.27;;;;;;;9.47;100.00;97266.06;4983287;28;20209;-55
2022/09/02 00:49:46;;;;;;;3.00;2.80;;;;;;;9.34;100.00;97261.38;4993091;28;20231;-59
2022/09/02 00:52:18;;;;;;;3.20;2.90;;;;;;;9.22;100.00;97263.59;4953496;28;20201;-55
2022/09/02 00:54:49;;;;;;;2.83;2.73;;;;;;;9.28;100.00;97257.59;4989592;28;20215;-48
2022/09/02 00:57:22;;;;;;;3.30;3.10;;;;;;;9.30;100.00;97258.25;4986142;28;20205;-56
2022/09/02 00:59:55;;;;;;;4.63;2.97;;;;;;;9.21;100.00;97257.47;4931778;28;20237;-51
2022/09/02 01:02:27;;;;;;;3.30;3.00;;;;;;;9.21;100.00;97248.72;4981015;28;20264;-53
2022/09/02 01:04:58;;;;;;;3.50;3.30;;;;;;;9.13;100.00;97265.44;4982272;28;21299;-51
2022/09/02 01:07:29;;;;;;;4.20;3.30;;;;;;;9.14;100.00;97258.34;4953071;28;20433;-53
2022/09/02 01:10:22;;;;;;;3.83;3.53;;;;;;;9.12;100.00;97264.63;4966818;28;20597;-59
2022/09/02 01:12:55;;;;;;;4.27;3.20;;;;;;;8.91;100.00;97252.00;4982436;28;20201;-51
2022/09/02 01:15:23;;;;;;;3.10;3.00;;;;;;;8.96;100.00;97262.88;4929162;28;20295;-54
2022/09/02 01:17:52;;;;;;;3.37;3.03;;;;;;;9.02;100.00;97269.28;4915492;28;21711;-50
2022/09/02 01:20:24;;;;;;;3.40;3.10;;;;;;;8.98;100.00;97267.97;4921562;28;20233;-54
2022/09/02 01:22:56;;;;;;;3.47;3.27;;;;;;;8.98;100.00;97263.53;4987017;28;20229;-49
2022/09/02 01:25:28;;;;;;;3.50;3.30;;;;;;;9.02;100.00;97268.47;4928992;28;20217;-57
2022/09/02 01:27:59;;;;;;;2.90;2.80;;;;;;;9.04;100.00;97258.56;4984989;28;20668;-53
2022/09/02 01:30:28;;;;;;;3.20;3.00;;;;;;;9.11;100.00;97263.00;4987443;28;20224;-55
2022/09/02 01:32:56;;;;;;;3.43;3.20;;;;;;;9.17;100.00;97266.75;4924043;28;20728;-54
2022/09/02 01:35:25;;;;;;;3.03;2.83;;;;;;;9.12;100.00;97258.50;4983969;28;20209;-56
2022/09/02 01:37:56;;;;;;;2.93;2.73;;;;;;;9.10;100.00;97261.34;4943968;28;20206;-57
2022/09/02 01:40:26;;;;;;;3.03;2.93;;;;;;;9.13;100.00;97260.16;4931926;28;20487;-56
2022/09/02 01:42:58;;;;;;;3.40;3.30;;;;;;;9.11;100.00;97252.41;4977828;28;20228;-56
2022/09/02 01:45:27;;;;;;;3.20;3.00;;;;;;;9.09;100.00;97253.56;4984622;28;20492;-57
2022/09/02 01:47:55;;;;;;;3.33;3.13;;;;;;;8.93;100.00;97257.09;4989242;28;20208;-57
2022/09/02 01:50:23;;;;;;;3.77;2.63;;;;;;;8.95;100.00;97258.59;4927814;28;21058;-52
2022/09/02 01:52:52;;;;;;;5.00;2.90;;;;;;;8.95;100.00;97260.41;4989894;28;20741;-56
2022/09/02 01:55:21;;;;;;;3.80;3.60;;;;;;;9.02;100.00;97250.78;4955548;28;20793;-58
2022/09/02 01:57:50;;;;;;;3.60;3.30;;;;;;;8.99;100.00;97259.06;4978905;28;20209;-56
2022/09/02 02:00:19;;;;;;;4.23;3.30;;;;;;;8.90;100.00;97260.94;4990601;28;20228;-56
2022/09/02 02:02:48;;;;;;;3.47;3.27;;;;;;;8.87;100.00;97252.50;4985328;28;20525;-54
2022/09/02 02:05:16;;;;;;;3.00;2.80;;;;;;;8.93;100.00;97247.38;4934359;28;21957;-55
2022/09/02 02:07:45;;;;;;;3.80;3.20;;;;;;;8.79;100.00;97251.56;4974816;28;20743;-57
2022/09/02 02:10:14;;;;;;;3.37;3.07;;;;;;;8.94;100.00;97246.38;4983102;28;21828;-57
2022/09/02 02:12:44;;;;;;;5.77;4.03;;;;;;;8.91;100.00;97252.00;4956355;28;20717;-53
2022/09/02 02:15:14;;;;;;;4.07;3.13;;;;;;;8.86;100.00;97249.03;4985443;28;20236;-54
2022/09/02 02:17:42;;;;;;;4.37;3.83;;;;;;;8.88;100.00;97249.69;4987208;28;20208;-58
2022/09/02 02:20:12;;;;;;;3.67;3.37;;;;;;;8.70;100.00;97231.44;4929568;28;20260;-56
2022/09/02 02:22:41;;;;;;;3.60;3.10;;;;;;;8.73;100.00;97238.19;4981016;28;20533;-53
2022/09/02 02:25:10;;;;;;;3.30;3.07;;;;;;;8.74;100.00;97242.47;4988601;28;20763;-54
2022/09/02 02:27:38;;;;;;;3.80;3.60;;;;;;;8.64;100.00;97219.75;4951494;28;20955;-60
2022/09/02 02:30:15;;;;;;;4.57;3.50;;;;;;;8.73;100.00;97236.41;4986588;28;20526;-58
2022/09/02 02:32:45;;;;;;;4.50;3.40;;;;;;;8.73;100.00;97235.56;4982654;28;20197;-55
2022/09/02 02:35:15;;;;;;;3.97;3.67;;;;;;;8.65;100.00;97242.53;4965693;28;20204;-58
2022/09/02 02:37:43;;;;;;;3.87;3.57;;;;;;;8.61;100.00;97235.94;4966053;28;20204;-55
2022/09/02 02:40:12;;;;;;;3.60;3.40;;;;;;;8.54;100.00;97225.22;4985589;28;20467;-57
2022/09/02 02:42:40;;;;;;;3.83;3.50;;;;;;;8.65;100.00;97234.59;4987401;28;20948;-58
2022/09/02 02:45:11;;;;;;;3.60;3.40;;;;;;;8.70;100.00;97231.44;4953229;28;20215;-59
2022/09/02 02:47:44;;;;;;;3.83;3.53;;;;;;;8.74;100.00;97234.56;4982085;28;20327;-57
2022/09/02 02:50:14;;;;;;;3.60;3.33;;;;;;;8.57;100.00;97220.59;4985063;28;20636;-56
2022/09/02 02:52:43;;;;;;;3.03;2.83;;;;;;;8.53;100.00;97222.75;4929960;28;20295;-57
2022/09/02 02:55:13;;;;;;;4.00;3.60;;;;;;;8.57;100.00;97231.16;4980943;28;20232;-60
2022/09/02 02:57:41;;;;;;;4.03;3.63;;;;;;;8.58;100.00;97227.50;4987608;28;20456;-54
2022/09/02 03:00:14;;;;;;;3.20;3.10;;;;;;;8.57;100.00;97228.50;4954794;28;20303;-56
2022/09/02 03:02:43;;;;;;;3.60;3.33;;;;;;;8.63;100.00;97223.38;4987258;28;20233;-55
2022/09/02 03:05:13;;;;;;;3.60;3.30;;;;;;;8.57;100.00;97210.03;4988274;28;20211;-57
2022/09/02 03:07:41;;;;;;;3.70;3.40;;;;;;;8.72;100.00;97220.69;4926350;28;20330;-55
2022/09/02 03:10:11;;;;;;;3.40;3.20;;;;;;;8.65;100.00;97221.38;4985740;28;20639;-60
2022/09/02 03:12:40;;;;;;;3.20;3.07;;;;;;;8.59;100.00;97227.34;4992346;28;20455;-61
2022/09/02 03:15:11;;;;;;;4.27;3.70;;;;;;;8.59;100.00;97221.25;4950502;28;20755;-56
2022/09/02 03:17:39;;;;;;;4.00;3.80;;;;;;;8.63;100.00;97215.47;4993328;28;20200;-54
2022/09/02 03:20:08;;;;;;;3.47;3.27;;;;;;;8.62;100.00;97215.63;4988511;28;20587;-56
2022/09/02 03:22:37;;;;;;;4.10;3.70;;;;;;;8.69;100.00;97219.22;4926626;28;21347;-57
2022/09/02 03:25:07;;;;;;;3.47;3.27;;;;;;;8.66;100.00;97216.91;4913369;28;20943;-56
2022/09/02 03:27:37;;;;;;;3.83;3.63;;;;;;;8.62;100.00;97226.19;4956172;28;20533;-59
2022/09/02 03:30:08;;;;;;;3.90;3.70;;;;;;;8.57;100.00;97218.78;4982901;28;20782;-56
2022/09/02 03:32:38;;;;;;;3.40;3.20;;;;;;;8.55;100.00;97223.41;4964097;28;20306;-56
2022/09/02 03:35:08;;;;;;;3.40;3.27;;;;;;;8.46;100.00;97222.56;4978032;28;20201;-57
2022/09/02 03:37:37;;;;;;;4.03;3.73;;;;;;;8.48;100.00;97219.75;4949377;28;20229;-58
2022/09/02 03:40:07;;;;;;;4.10;3.70;;;;;;;8.38;100.00;97215.50;4989898;28;20566;-57
2022/09/02 03:42:36;;;;;;;4.63;4.20;;;;;;;8.33;100.00;97212.53;4930988;28;21459;-57
2022/09/02 03:45:07;;;;;;;6.43;3.70;;;;;;;8.33;100.00;97222.25;4995305;28;20205;-51
2022/09/02 03:47:39;;;;;;;3.60;3.50;;;;;;;8.39;100.00;97216.34;4962259;28;20212;-57
2022/09/02 03:50:07;;;;;;;3.60;3.40;;;;;;;8.37;100.00;97211.22;4989828;28;20651;-54
2022/09/02 03:52:36;;;;;;;3.53;3.33;;;;;;;8.31;100.00;97214.53;4985259;28;20210;-60
2022/09/02 03:55:05;;;;;;;4.83;3.80;;;;;;;8.28;100.00;97214.03;4994529;28;20633;-57
2022/09/02 03:57:35;;;;;;;4.07;3.70;;;;;;;8.30;100.00;97207.59;4933319;28;20266;-58
2022/09/02 04:00:05;;;;;;;4.20;3.90;;;;;;;8.28;100.00;97212.22;4987008;28;20271;-54
2022/09/02 04:02:34;;;;;;;3.90;3.60;;;;;;;8.21;100.00;97209.44;4985523;28;20230;-61
2022/09/02 04:05:04;;;;;;;3.40;3.13;;;;;;;8.22;100.00;97211.06;4975929;28;20610;-50
2022/09/02 04:07:40;;;;;;;3.73;3.43;;;;;;;8.29;100.00;97207.75;4975690;28;20513;-56
2022/09/02 04:10:12;;;;;;;3.83;3.63;;;;;;;8.21;100.00;97204.16;4985980;28;20228;-56
2022/09/02 04:12:41;;;;;;;3.70;3.40;;;;;;;8.29;100.00;97202.47;4932258;28;20891;-60
2022/09/02 04:15:12;;;;;;;4.13;3.90;;;;;;;8.36;100.00;97206.09;4980701;28;20213;-58
2022/09/02 04:17:41;;;;;;;4.43;3.63;;;;;;;8.34;100.00;97190.44;4974443;28;21049;-53
2022/09/02 04:20:13;;;;;;;3.87;3.67;;;;;;;8.39;100.00;97201.28;4946096;28;20546;-53
2022/09/02 04:22:41;;;;;;;3.57;3.37;;;;;;;8.31;100.00;97208.41;4993612;28;20305;-55
2022/09/02 04:25:10;;;;;;;3.90;3.60;;;;;;;8.21;100.00;97200.69;4980022;28;20205;-52
2022/09/02 04:27:38;;;;;;;4.27;3.70;;;;;;;8.24;100.00;97213.56;4984767;28;20213;-53
2022/09/02 04:30:09;;;;;;;3.53;3.20;;;;;;;8.31;100.00;97205.78;4926112;28;21743;-56
2022/09/02 04:32:37;;;;;;;4.13;3.80;;;;;;;8.14;100.00;97204.97;4989356;28;20935;-55
2022/09/02 04:35:08;;;;;;;4.70;4.40;;;;;;;8.17;100.00;97202.03;4958039;28;20819;-51
2022/09/02 04:37:38;;;;;;;3.53;3.30;;;;;;;8.16;100.00;97216.22;4956426;28;20327;-57
2022/09/02 04:40:07;;;;;;;3.70;3.50;;;;;;;8.19;100.00;97213.25;4990695;28;20433;-51
2022/09/02 04:42:36;;;;;;;4.20;3.90;;;;;;;8.22;100.00;97208.44;4982942;28;21089;-50
2022/09/02 04:45:05;;;;;;;4.67;4.27;;;;;;;8.25;100.00;97208.09;4922560;28;20291;-56
2022/09/02 04:47:33;;;;;;;4.03;3.70;;;;;;;8.30;100.00;97215.53;4989098;28;20681;-53
2022/09/02 04:50:02;;;;;;;3.80;3.60;;;;;;;8.33;100.00;97215.19;4960853;28;20235;-58
2022/09/02 04:52:31;;;;;;;4.63;3.83;;;;;;;8.21;100.00;97206.78;4982755;28;20204;-61
2022/09/02 04:55:00;;;;;;;4.33;4.03;;;;;;;8.19;100.00;97221.16;4959100;28;20205;-52
2022/09/02 04:57:28;;;;;;;4.33;3.90;;;;;;;8.23;100.00;97220.63;4989706;28;20201;-60
2022/09/02 04:59:57;;;;;;;4.40;4.00;;;;;;;8.30;100.00;97217.31;4898024;28;20240;-55
2022/09/02 05:02:25;;;;;;;3.97;3.77;;;;;;;8.37;100.00;97213.84;4990237;28;20228;-53
2022/09/02 05:04:53;;;;;;;5.30;3.53;;;;;;;8.39;100.00;97214.50;4962251;28;20652;-56
2022/09/02 05:07:21;;;;;;;4.73;4.03;;;;;;;8.46;100.00;97216.47;4985656;28;20218;-55
2022/09/02 05:09:50;;;;;;;5.00;4.60;;;;;;;8.52;100.00;97221.09;4988355;28;20324;-55
2022/09/02 05:12:20;;;;;;;4.93;3.37;;;;;;;8.62;100.00;97220.91;4987254;28;20693;-53
2022/09/02 05:14:49;;;;;;;4.70;4.20;;;;;;;8.75;100.00;97212.44;4951630;28;20632;-53
2022/09/02 05:17:17;;;;;;;3.83;3.50;;;;;;;8.81;100.00;97214.38;4939095;28;20241;-52
2022/09/02 05:19:46;;;;;;;3.77;3.47;;;;;;;8.91;100.00;97222.94;4958186;28;20263;-60
2022/09/02 05:22:14;;;;;;;3.73;3.53;;;;;;;9.00;100.00;97218.41;4991033;28;20239;-56
2022/09/02 05:24:42;;;;;;;3.27;3.17;;;;;;;9.02;100.00;97213.78;4987939;28;20252;-57
2022/09/02 05:27:11;;;;;;;3.07;2.97;;;;;;;9.25;100.00;97223.59;4979561;28;20213;-60
2022/09/02 05:29:41;;;;;;;3.60;3.30;;;;;;;9.41;100.00;97220.81;4993244;28;20212;-56
2022/09/02 05:32:12;;;;;;;3.57;3.27;;;;;;;9.61;100.00;97224.81;4936699;28;20208;-57
2022/09/02 05:34:40;;;;;;;3.50;3.30;;;;;;;9.76;100.00;97220.41;4920916;28;20553;-53
2022/09/02 05:37:09;;;;;;;2.93;2.83;;;;;;;9.95;100.00;97224.41;4985867;28;20300;-54
2022/09/02 05:39:37;;;;;;;3.43;3.13;;;;;;;10.17;100.00;97223.72;4950356;28;20701;-53
2022/09/02 05:42:05;;;;;;;3.13;2.97;;;;;;;10.36;100.00;97230.31;4987072;28;20201;-55
2022/09/02 05:44:33;;;;;;;3.10;2.90;;;;;;;10.46;100.00;97222.13;4953286;28;20757;-58
2022/09/02 05:47:03;;;;;;;2.73;2.63;;;;;;;10.61;100.00;97222.94;4989393;28;20653;-58
2022/09/02 05:49:31;;;;;;;3.17;2.97;;;;;;;10.70;100.00;97219.19;4925688;28;20282;-60
2022/09/02 05:52:00;;;;;;;3.27;2.93;;;;;;;10.89;100.00;97222.28;4990594;28;20208;-56
2022/09/02 05:54:31;;;;;;;3.20;3.00;;;;;;;11.14;100.00;97222.78;4983824;28;20209;-56
2022/09/02 05:57:01;;;;;;;3.33;3.07;;;;;;;11.16;100.00;97217.28;4987722;28;20287;-56
2022/09/02 05:59:38;;;;;;;2.97;2.80;;;;;;;11.05;100.00;97208.00;4954016;28;20747;-57
2022/09/02 06:02:08;;;;;;;3.47;3.20;;;;;;;11.34;100.00;97218.72;4992348;28;20256;-56
2022/09/02 06:04:38;;;;;;;2.83;2.63;;;;;;;11.31;100.00;97205.81;4926673;28;20596;-56
2022/09/02 06:07:07;;;;;;;3.10;2.90;;;;;;;11.43;100.00;97217.56;4987031;28;20255;-59
2022/09/02 06:09:39;;;;;;;3.40;2.70;;;;;;;11.55;100.00;97213.44;4987636;28;20239;-54
2022/09/02 06:12:08;;;;;;;2.50;2.40;;;;;;;11.53;100.00;97214.63;4984933;28;20208;-52
2022/09/02 06:14:36;;;;;;;2.70;2.50;;;;;;;11.77;100.00;97213.41;4915666;28;20872;-54
2022/09/02 06:17:05;;;;;;;3.17;2.50;;;;;;;11.94;100.00;97216.63;4978224;28;20241;-52
2022/09/02 06:19:35;;;;;;;3.57;3.17;;;;;;;12.14;100.00;97218.66;4903589;28;21398;-55
2022/09/02 06:22:05;;;;;;;3.00;2.80;;;;;;;12.26;100.00;97218.91;4982471;28;20220;-59
2022/09/02 06:24:33;;;;;;;2.80;2.60;;;;;;;12.40;100.00;97222.47;4984439;28;20235;-56
2022/09/02 06:27:01;;;;;;;2.67;2.57;;;;;;;12.39;100.00;97205.75;4956632;28;20208;-57
2022/09/02 06:29:30;;;;;;;4.83;2.93;;;;;;;12.38;100.00;97216.53;4984647;28;20289;-58
2022/09/02 06:31:58;;;;;;;2.67;2.57;;;;;;;12.40;100.00;97215.34;4958460;28;20309;-57
2022/09/02 06:34:27;;;;;;;2.73;2.53;;;;;;;12.55;100.00;97217.91;4954422;28;20797;-55
2022/09/02 06:36:57;;;;;;;2.53;2.23;;;;;;;12.67;100.00;97214.69;4932098;28;20275;-59
2022/09/02 06:39:25;;;;;;;2.60;2.40;;;;;;;13.03;100.00;97214.41;4981575;28;20286;-55
2022/09/02 06:41:54;;;;;;;2.97;2.23;;;;;;;13.25;100.00;97219.63;4958446;28;20217;-56
2022/09/02 06:44:22;;;;;;;3.27;2.70;;;;;;;13.54;100.00;97217.69;4985187;28;20924;-56
2022/09/02 06:46:54;;;;;;;4.00;2.73;;;;;;;13.64;100.00;97217.28;4959776;28;20368;-56
2022/09/02 06:49:23;;;;;;;2.53;2.33;;;;;;;13.70;100.00;97210.31;4958652;28;21108;-54
2022/09/02 06:51:54;;;;;;;2.20;2.10;;;;;;;13.86;100.00;97203.78;4927986;28;20306;-53
2022/09/02 06:54:24;;;;;;;2.10;2.00;;;;;;;13.95;100.00;97204.41;4984379;28;20908;-50
2022/09/02 06:56:53;;;;;;;3.13;2.40;;;;;;;14.21;100.00;97210.75;4985067;28;20205;-52
2022/09/02 06:59:22;;;;;;;2.47;2.27;;;;;;;14.24;100.00;97207.66;4958615;28;20611;-50
2022/09/02 07:01:50;;;;;;;2.20;2.10;;;;;;;14.29;100.00;97208.66;4955015;28;20684;-51
2022/09/02 07:07:07;;;;;;;2.30;2.20;;;;;;;14.49;100.00;97194.50;4917723;28;20241;-60
2022/09/02 07:09:36;;;;;;;2.63;2.10;;;;;;;14.54;100.00;97212.50;4968754;28;20469;-49
2022/09/02 07:12:04;;;;;;;2.13;2.03;;;;;;;14.47;100.00;97208.03;4985709;28;20330;-57
2022/09/02 07:14:37;;;;;;;2.33;2.23;;;;;;;14.77;100.00;97196.06;4954902;28;20732;-52
2022/09/02 07:17:05;;;;;;;2.77;2.17;;;;;;;14.85;100.00;97205.69;4951119;28;20661;-55
2022/09/02 07:19:33;;;;;;;2.37;2.27;;;;;;;14.84;100.00;97201.38;4987304;28;20295;-54
2022/09/02 07:22:04;;;;;;;2.27;2.17;;;;;;;14.90;100.00;97205.88;4959857;28;20296;-57
2022/09/02 07:24:33;;;;;;;2.60;2.40;;;;;;;14.95;100.00;97203.38;4930531;28;20239;-51
2022/09/02 07:27:04;;;;;;;2.17;2.07;;;;;;;15.03;100.00;97210.34;4976382;28;20347;-56
2022/09/02 07:29:33;;;;;;;3.53;1.80;;;;;;;14.84;100.00;97210.22;4957928;28;20909;-51
2022/09/02 07:32:02;;;;;;;2.13;2.03;;;;;;;14.71;100.00;97196.91;4971002;28;20632;-56
2022/09/02 07:34:30;;;;;;;2.20;2.10;;;;;;;15.17;100.00;97205.75;4965085;28;20337;-54
2022/09/02 07:36:58;;;;;;;2.40;2.23;;;;;;;15.24;100.00;97203.88;4968859;28;20325;-54
2022/09/02 07:39:34;;;;;;;2.70;2.50;;;;;;;15.17;100.00;97200.44;4944976;28;20305;-59
2022/09/02 07:42:04;;;;;;;2.10;2.00;;;;;;;15.34;100.00;97208.75;4925581;28;20330;-55
2022/09/02 07:44:34;;;;;;;2.30;2.10;;;;;;;15.42;100.00;97205.03;4990024;28;20239;-56
2022/09/02 07:47:03;;;;;;;2.57;2.37;;;;;;;15.51;100.00;97209.06;4965540;28;20323;-52
2022/09/02 07:49:31;;;;;;;2.60;2.40;;;;;;;15.61;100.00;97204.06;4953148;28;20753;-58
2022/09/02 07:52:19;;;;;;;1.90;1.80;;;;;;;15.71;100.00;97208.09;4988114;28;20791;-57
2022/09/02 07:54:47;;;;;;;1.77;1.67;;;;;;;15.62;100.00;97200.38;4931064;28;20847;-56
2022/09/02 07:57:16;;;;;;;2.10;2.00;;;;;;;15.52;100.00;97184.00;4989406;28;20232;-56
2022/09/02 07:59:45;;;;;;;2.40;2.20;;;;;;;15.39;100.00;97198.25;4988362;28;20528;-57
2022/09/02 08:02:13;;;;;;;2.83;1.87;;;;;;;15.71;100.00;97198.25;4966429;28;20213;-53
2022/09/02 08:04:42;;;;;;;3.47;1.93;;;;;;;16.15;100.00;97197.53;4962382;28;20622;-54
2022/09/02 08:07:11;;;;;;;2.07;1.80;;;;;;;16.08;100.00;97208.25;4985401;28;20758;-56
2022/09/02 08:09:39;;;;;;;2.20;2.10;;;;;;;16.08;100.00;97205.59;4979938;28;20399;-54
2022/09/02 08:12:07;;;;;;;2.33;2.20;;;;;;;16.30;100.00;97206.03;4937785;28;20999;-53
2022/09/02 08:14:37;;;;;;;1.97;1.87;;;;;;;16.33;100.00;97197.56;4987023;28;20241;-53
2022/09/02 08:17:05;;;;;;;1.90;1.80;;;;;;;16.59;100.00;97206.34;4990345;28;20344;-59
2022/09/02 08:19:33;;;;;;;2.57;2.20;;;;;;;16.83;100.00;97203.00;4963176;28;20796;-58
2022/09/02 08:22:03;;;;;;;1.80;1.70;;;;;;;16.78;100.00;97201.00;4992687;28;20286;-59
2022/09/02 08:24:32;;;;;;;2.40;1.57;;;;;;;16.74;100.00;97200.63;4990510;28;20212;-57
2022/09/02 08:27:00;;;;;;;1.43;1.43;;;;;;;16.91;100.00;97197.38;4926784;28;21027;-52
2022/09/02 08:29:28;;;;;;;1.73;1.63;;;;;;;16.83;100.00;97208.34;4987056;28;20312;-56
2022/09/02 08:31:57;;;;;;;1.83;1.73;;;;;;;16.98;100.00;97205.31;4984786;28;20677;-56
2022/09/02 08:34:26;;;;;;;1.70;1.60;;;;;;;16.97;100.00;97193.78;4949777;28;20560;-55
2022/09/02 08:36:54;;;;;;;1.70;1.60;;;;;;;17.07;96.75;97195.97;4978847;28;21189;-54
2022/09/02 08:39:24;;;;;;;2.50;1.60;;;;;;;17.20;94.89;97198.47;4964802;28;20206;-56
2022/09/02 08:41:59;;;;;;;2.20;1.70;;;;;;;17.09;91.63;97195.72;4985301;28;20224;-58
2022/09/02 08:44:29;;;;;;;1.40;1.40;;;;;;;16.94;88.76;97196.91;4932453;28;20295;-52
2022/09/02 08:47:02;;;;;;;1.60;1.50;;;;;;;17.04;92.51;97199.06;4989451;28;20221;-54
2022/09/02 08:49:34;;;;;;;2.67;2.00;;;;;;;17.27;93.81;97195.72;4948669;28;20308;-54
2022/09/02 08:52:04;;;;;;;1.80;1.70;;;;;;;17.61;92.42;97193.34;4984040;28;20205;-54
2022/09/02 08:54:39;;;;;;;4.73;1.60;;;;;;;17.84;88.86;97190.97;4991755;28;20204;-56
2022/09/02 08:57:08;;;;;;;2.43;1.60;;;;;;;17.79;88.80;97192.47;4970839;28;20451;-57
2022/09/02 08:59:37;;;;;;;1.93;1.60;;;;;;;17.83;84.49;97192.03;4946630;28;20245;-52
2022/09/02 09:02:25;;;;;;;1.90;1.80;;;;;;;17.84;88.63;97189.09;4989192;28;20215;-55
2022/09/02 09:05:07;;;;;;;2.70;1.50;;;;;;;18.06;79.36;97181.34;4958175;28;20220;-56
2022/09/02 09:07:37;;;;;;;1.67;1.50;;;;;;;18.19;73.79;97188.34;4984366;28;20216;-51
2022/09/02 09:10:11;;;;;;;1.70;1.60;;;;;;;18.32;72.35;97176.56;4984176;28;20254;-59
2022/09/02 09:13:01;;;;;;;1.83;1.73;;;;;;;18.28;72.65;97179.94;4986608;28;20322;-53
2022/09/02 09:15:34;;;;;;;1.57;1.50;;;;;;;18.34;65.25;97184.38;4933293;28;20208;-54
2022/09/02 09:18:07;;;;;;;1.63;1.53;;;;;;;18.29;65.62;97170.84;4988166;28;20211;-52
2022/09/02 09:20:38;;;;;;;2.73;1.37;;;;;;;18.49;69.19;97174.00;4960476;28;20802;-56
2022/09/02 09:23:18;;;;;;;1.83;1.73;;;;;;;18.65;64.57;97161.72;4991206;28;20720;-58
2022/09/02 09:25:50;;;;;;;0.97;0.93;;;;;;;18.83;66.72;97154.53;4985609;28;20233;-53
2022/09/02 09:28:18;;;;;;;1.60;1.40;;;;;;;18.56;61.07;97151.59;4986554;28;20724;-58
2022/09/02 09:30:46;;;;;;;1.77;1.40;;;;;;;18.64;63.04;97157.41;4931110;28;20253;-52
2022/09/02 09:33:18;;;;;;;2.37;0.97;;;;;;;18.47;56.14;97157.31;4984948;28;20736;-52
2022/09/02 09:35:49;;;;;;;1.40;1.30;;;;;;;18.30;56.58;97161.75;4983220;28;20207;-54
2022/09/02 09:38:28;;;;;;;2.03;1.40;;;;;;;18.25;59.20;97153.59;4962002;28;20221;-56
2022/09/02 09:41:12;;;;;;;2.20;1.20;;;;;;;18.30;56.53;97159.06;4989604;28;20233;-54
2022/09/02 09:43:40;;;;;;;1.10;1.10;;;;;;;18.50;53.96;97153.34;4985080;28;20511;-52
2022/09/02 09:46:26;;;;;;;0.80;0.80;;;;;;;18.73;50.16;97154.34;4926686;28;20220;-60
2022/09/02 09:48:56;;;;;;;1.10;1.10;;;;;;;18.98;50.52;97147.91;4929115;28;20390;-55
2022/09/02 09:51:24;;;;;;;1.53;1.43;;;;;;;18.90;49.48;97144.47;4994935;28;20655;-49
2022/09/02 09:53:52;;;;;;;2.13;1.47;;;;;;;19.13;48.90;97141.97;4954068;28;20552;-53
2022/09/02 09:56:33;;;;;;;2.30;1.10;;;;;;;19.23;50.48;97136.81;4985502;28;20271;-53
2022/09/02 09:59:07;;;;;;;0.93;0.93;;;;;;;19.26;51.85;97130.94;4965993;28;20213;-53
2022/09/02 10:01:36;;;;;;;2.60;1.60;;;;;;;19.24;51.01;97122.31;4972811;28;20328;-57
2022/09/02 10:04:08;;;;;;;1.10;1.00;;;;;;;19.03;50.60;97132.69;4948056;28;20225;-53
2022/09/02 10:06:56;;;;;;;1.10;1.00;;;;;;;18.98;47.26;97129.09;4983962;28;20252;-53
2022/09/02 10:09:32;;;;;;;3.43;1.00;;;;;;;19.12;45.77;97141.16;4989675;28;20209;-56
2022/09/02 10:12:02;;;;;;;1.30;1.20;;;;;;;19.29;46.56;97135.00;4986467;28;20211;-54
2022/09/02 10:14:34;;;;;;;1.07;0.97;;;;;;;19.36;47.52;97141.06;4960154;28;20370;-60
2022/09/02 10:17:23;;;;;;;1.27;1.17;;;;;;;19.84;49.71;97133.50;4926130;28;22440;-54
2022/09/02 10:19:57;;;;;;;1.37;1.37;;;;;;;19.38;47.01;97128.22;4980743;28;20767;-58
2022/09/02 10:22:50;;;;;;;1.53;0.87;;;;;;;19.61;48.71;97124.56;4990930;28;20216;-53
2022/09/02 10:25:32;;;;;;;1.73;1.20;;;;;;;20.13;45.96;97122.69;4939363;28;20699;-56
2022/09/02 10:28:06;;;;;;;2.80;1.50;;;;;;;20.24;45.94;97124.44;4983307;28;20217;-58
2022/09/02 10:30:41;;;;;;;1.00;1.00;;;;;;;19.88;46.69;97115.03;4909515;28;20345;-53
2022/09/02 10:33:24;;;;;;;1.10;0.97;;;;;;;20.01;47.79;97114.69;4931659;28;20387;-55
2022/09/02 10:36:01;;;;;;;1.40;0.97;;;;;;;20.19;46.92;97110.91;4956170;28;20300;-52
2022/09/02 10:38:39;;;;;;;0.93;0.93;;;;;;;20.16;46.36;97097.16;4978266;28;20604;-56
2022/09/02 10:41:17;;;;;;;3.50;1.57;;;;;;;20.09;49.91;97103.53;4981770;28;20229;-51
2022/09/02 10:44:02;;;;;;;1.60;1.47;;;;;;;20.36;50.03;97105.50;4952150;28;20728;-53
2022/09/02 10:46:39;;;;;;;1.13;1.13;;;;;;;20.46;46.89;97096.75;4953144;28;20435;-54
2022/09/02 10:49:12;;;;;;;1.10;1.00;;;;;;;20.42;48.37;97094.78;4920702;28;20244;-56
2022/09/02 10:51:48;;;;;;;1.27;1.27;;;;;;;20.39;48.16;97099.63;4949554;28;20496;-55
2022/09/02 10:54:26;;;;;;;3.10;1.10;;;;;;;20.10;48.06;97102.47;4982155;28;20201;-56
2022/09/02 10:56:58;;;;;;;1.87;1.50;;;;;;;19.03;51.75;97096.97;4981147;28;20330;-53
2022/09/02 10:59:31;;;;;;;1.77;1.27;;;;;;;19.21;52.52;97098.63;4943345;28;20209;-53
2022/09/02 11:02:06;;;;;;;2.97;1.23;;;;;;;19.61;51.60;97092.31;4954560;28;20733;-54
2022/09/02 11:04:38;;;;;;;3.53;1.43;;;;;;;20.18;51.04;97092.34;4925497;28;20318;-50
2022/09/02 11:07:09;;;;;;;1.47;1.37;;;;;;;20.78;51.07;97087.97;4954604;28;20327;-55
2022/09/02 11:09:40;;;;;;;1.60;1.27;;;;;;;20.79;50.58;97086.94;4982667;28;20205;-54
2022/09/02 11:12:15;;;;;;;1.57;1.20;;;;;;;20.60;49.02;97082.91;4948159;28;20237;-53
2022/09/02 11:14:51;;;;;;;3.07;1.40;;;;;;;20.90;48.96;97077.09;4982370;28;20283;-52
2022/09/02 11:17:23;;;;;;;1.80;1.20;;;;;;;21.10;48.41;97070.28;4949507;28;20236;-55
2022/09/02 11:19:56;;;;;;;1.53;1.10;;;;;;;21.25;47.20;97080.38;4932856;28;20240;-51
2022/09/02 11:22:30;;;;;;;1.33;1.10;;;;;;;21.54;47.31;97075.50;4960057;28;20453;-55
2022/09/02 11:25:03;;;;;;;1.10;1.10;;;;;;;21.36;44.08;97067.81;4984180;28;20251;-53
2022/09/02 11:27:37;;;;;;;3.20;1.63;;;;;;;21.58;46.18;97070.41;4988017;28;20302;-52
2022/09/02 11:30:13;;;;;;;1.97;1.40;;;;;;;21.71;46.72;97062.97;4947760;28;20841;-57
2022/09/02 11:32:46;;;;;;;1.10;1.10;;;;;;;21.61;43.33;97058.31;4950404;28;20271;-57
2022/09/02 11:35:18;;;;;;;1.20;1.00;;;;;;;21.90;44.07;97058.81;4903387;28;20296;-52
2022/09/02 11:37:50;;;;;;;1.90;1.13;;;;;;;21.24;45.08;97059.91;4990230;28;20200;-52
2022/09/02 11:40:25;;;;;;;0.93;0.93;;;;;;;21.53;46.02;97063.09;4993824;28;20236;-52
2022/09/02 11:43:08;;;;;;;1.03;1.03;;;;;;;21.37;43.84;97055.97;4966732;28;20555;-54
2022/09/02 11:46:12;;;;;;;2.20;1.30;;;;;;;21.32;45.49;97064.81;4987038;28;20240;-54
2022/09/02 11:49:04;;;;;;;2.80;1.90;;;;;;;21.14;42.53;97059.81;4852124;28;20206;-58
2022/09/02 11:52:06;;;;;;;1.10;1.10;;;;;;;20.63;47.05;97055.47;4898857;28;20394;-57